Time;durP1;ratioP1;P1;durP2;ratioP2;P2;SDS_P1;SDS_P2;PMS_P1;PMS_P2;Temp;Humidity;BMP_temperature;BMP_pressure;BME280_temperature;BME280_humidity;BME280_pressure;Samples;Min_cycle;Max_cycle;Signal;HPM_P1;HPM_P2
2020/12/02 00:00:57;;;;;;;90.70;20.50;;;;;;;2.24;100.00;96181.13;5097561;28;20536;-87
2020/12/02 00:03:29;;;;;;;34.67;14.87;;;;;;;2.22;100.00;96182.84;5096943;28;20932;-87
2020/12/02 00:05:56;;;;;;;47.03;16.37;;;;;;;2.28;100.00;96180.88;5097148;28;20470;-87
2020/12/02 00:08:29;;;;;;;143.27;24.03;;;;;;;2.19;100.00;96186.47;5097118;28;20436;-88
2020/12/02 00:10:55;;;;;;;133.20;22.47;;;;;;;2.14;100.00;96180.69;5097275;28;20967;-87
2020/12/02 00:13:27;;;;;;;427.27;42.87;;;;;;;1.97;100.00;96187.25;5097125;28;20408;-87
2020/12/02 00:15:53;;;;;;;377.53;43.63;;;;;;;1.93;100.00;96186.78;5096733;28;21047;-86
2020/12/02 00:18:20;;;;;;;71.73;16.77;;;;;;;1.87;100.00;96188.72;5096916;28;20418;-86
2020/12/02 00:20:47;;;;;;;47.63;17.00;;;;;;;2.03;100.00;96185.31;5097262;28;20463;-87
2020/12/02 00:23:13;;;;;;;368.87;44.00;;;;;;;1.98;100.00;96192.06;5096712;28;20428;-87
2020/12/02 00:25:39;;;;;;;376.57;46.13;;;;;;;1.91;100.00;96189.22;5096963;28;20439;-87
2020/12/02 00:28:10;;;;;;;584.90;65.10;;;;;;;1.87;100.00;96189.44;5096510;28;20474;-87
2020/12/02 00:30:37;;;;;;;422.63;42.27;;;;;;;1.77;100.00;96184.84;5096758;28;20479;-87
2020/12/02 00:33:10;;;;;;;498.30;49.80;;;;;;;1.84;100.00;96179.06;5096665;28;20783;-87
2020/12/02 00:35:37;;;;;;;782.03;73.00;;;;;;;1.81;100.00;96175.44;5096464;28;20436;-88
2020/12/02 00:38:05;;;;;;;938.53;87.53;;;;;;;1.71;100.00;96176.16;5097265;28;20437;-86
2020/12/02 00:40:32;;;;;;;633.50;60.40;;;;;;;1.67;100.00;96175.69;5096557;28;20439;-87
2020/12/02 00:42:58;;;;;;;293.53;37.07;;;;;;;1.84;100.00;96177.13;5096528;28;20901;-86
2020/12/02 00:45:24;;;;;;;984.70;86.47;;;;;;;1.96;100.00;96175.16;5096369;28;20920;-87
2020/12/02 00:47:52;;;;;;;778.23;83.90;;;;;;;1.87;100.00;96173.50;5096878;28;20439;-87
2020/12/02 00:50:20;;;;;;;698.53;62.47;;;;;;;1.84;100.00;96176.38;5096445;28;20551;-87
2020/12/02 00:53:02;;;;;;;935.83;86.27;;;;;;;1.72;100.00;96167.72;5096126;28;20431;-87
2020/12/02 00:55:28;;;;;;;680.10;68.70;;;;;;;1.82;100.00;96170.81;5096993;28;20813;-87
2020/12/02 00:57:55;;;;;;;968.20;89.80;;;;;;;1.74;100.00;96167.22;5097248;28;20447;-87
2020/12/02 01:00:22;;;;;;;1011.87;93.00;;;;;;;1.74;100.00;96169.88;5096074;28;20543;-88
2020/12/02 01:02:59;;;;;;;495.70;54.07;;;;;;;1.76;100.00;96162.84;5098547;28;20515;-87
2020/12/02 01:05:26;;;;;;;1116.87;107.27;;;;;;;1.62;100.00;96166.50;5097191;28;20428;-86
2020/12/02 01:07:54;;;;;;;352.17;41.80;;;;;;;1.85;100.00;96169.88;5101976;28;20445;-86
2020/12/02 01:10:20;;;;;;;1296.97;118.57;;;;;;;1.71;100.00;96168.91;5097147;28;20473;-86
2020/12/02 01:12:49;;;;;;;440.90;44.20;;;;;;;1.67;100.00;96173.00;5095649;28;20520;-86
2020/12/02 01:15:18;;;;;;;1316.80;122.93;;;;;;;1.54;100.00;96171.56;5095972;28;20424;-87
2020/12/02 01:18:13;;;;;;;647.47;67.87;;;;;;;1.63;100.00;96172.56;5095811;28;20437;-86
2020/12/02 01:20:39;;;;;;;829.50;70.47;;;;;;;1.67;100.00;96173.75;5096496;28;20448;-87
2020/12/02 01:23:08;;;;;;;766.87;77.57;;;;;;;1.84;100.00;96165.75;5096580;28;20449;-86
2020/12/02 01:25:34;;;;;;;602.10;60.13;;;;;;;1.70;100.00;96170.13;5096025;28;20433;-84
2020/12/02 01:28:05;;;;;;;283.03;33.13;;;;;;;1.80;100.00;96166.00;5095683;28;20552;-84
2020/12/02 01:30:33;;;;;;;611.07;61.70;;;;;;;1.91;100.00;96167.94;5095193;28;20461;-83
2020/12/02 01:33:00;;;;;;;1241.70;113.30;;;;;;;1.73;100.00;96169.16;5095191;28;20425;-84
2020/12/02 01:35:29;;;;;;;1360.53;122.43;;;;;;;1.58;100.00;96166.75;5094810;28;20943;-85
2020/12/02 01:37:59;;;;;;;339.53;40.93;;;;;;;1.55;100.00;96172.31;5095077;28;20432;-84
2020/12/02 01:40:27;;;;;;;1121.10;104.27;;;;;;;1.45;100.00;96171.09;5095608;28;20425;-87
2020/12/02 01:42:55;;;;;;;947.03;82.10;;;;;;;1.55;100.00;96164.31;5095629;28;20436;-86
2020/12/02 01:45:26;;;;;;;268.00;31.27;;;;;;;1.71;100.00;96168.19;5095662;28;20437;-87
2020/12/02 01:48:09;;;;;;;749.07;71.73;;;;;;;1.54;100.00;96168.19;5096284;28;20417;-88
2020/12/02 01:50:41;;;;;;;1017.17;85.03;;;;;;;1.61;100.00;96165.06;5096018;28;20468;-84
2020/12/02 01:53:20;;;;;;;977.17;91.53;;;;;;;1.53;100.00;96164.09;5095735;28;20482;-86
2020/12/02 01:55:53;;;;;;;1019.37;94.80;;;;;;;1.38;100.00;96166.28;5094828;28;20535;-86
2020/12/02 01:58:41;;;;;;;1056.30;103.40;;;;;;;1.38;100.00;96160.97;5095372;28;20417;-85
2020/12/02 02:01:14;;;;;;;710.10;66.63;;;;;;;1.36;100.00;96156.13;5095329;28;20540;-85
2020/12/02 02:03:41;;;;;;;1334.93;113.60;;;;;;;1.21;100.00;96158.28;5095299;28;20409;-85
2020/12/02 02:06:13;;;;;;;562.80;58.87;;;;;;;1.30;100.00;96158.06;5094933;28;20452;-86
2020/12/02 02:08:42;;;;;;;1359.10;123.83;;;;;;;1.20;100.00;96150.78;5096022;28;20448;-86
2020/12/02 02:11:11;;;;;;;1194.50;113.50;;;;;;;1.18;100.00;96159.25;5095093;28;20992;-86
2020/12/02 02:14:28;;;;;;;919.13;92.33;;;;;;;1.24;100.00;96154.66;5093670;28;20520;-86
2020/12/02 02:16:55;;;;;;;391.23;43.37;;;;;;;1.30;100.00;96152.75;5095527;28;20465;-86
2020/12/02 02:19:25;;;;;;;436.67;47.33;;;;;;;1.44;100.00;96156.38;5095110;28;20445;-86
2020/12/02 02:21:54;;;;;;;934.50;85.90;;;;;;;1.43;100.00;96155.66;5115648;28;20428;-86
2020/12/02 02:24:21;;;;;;;821.50;85.70;;;;;;;1.52;100.00;96154.66;5118692;28;20426;-85
2020/12/02 02:26:50;;;;;;;222.73;29.83;;;;;;;1.57;100.00;96148.59;5118296;28;20467;-85
2020/12/02 02:29:21;;;;;;;744.07;71.87;;;;;;;1.44;100.00;96145.75;5115721;28;20467;-86
2020/12/02 02:31:55;;;;;;;347.93;39.27;;;;;;;1.39;100.00;96141.88;5098766;28;20412;-86
2020/12/02 02:34:23;;;;;;;240.73;34.43;;;;;;;1.40;100.00;96142.59;5098543;28;20413;-86
2020/12/02 02:36:49;;;;;;;624.63;58.70;;;;;;;1.30;100.00;96138.72;5098933;28;20457;-86
2020/12/02 02:39:16;;;;;;;402.80;46.13;;;;;;;1.37;100.00;96143.56;5098884;28;20440;-86
2020/12/02 02:41:43;;;;;;;553.50;57.97;;;;;;;1.40;100.00;96134.63;5098486;28;20432;-87
2020/12/02 02:44:12;;;;;;;970.40;87.47;;;;;;;1.32;100.00;96131.72;5098469;28;20451;-87
2020/12/02 02:46:39;;;;;;;722.30;69.03;;;;;;;1.34;100.00;96133.91;5098883;28;20522;-87
2020/12/02 02:49:07;;;;;;;627.03;62.17;;;;;;;1.27;100.00;96129.06;5099020;28;20436;-87
2020/12/02 02:51:34;;;;;;;305.70;38.20;;;;;;;1.40;100.00;96122.06;5102111;28;20438;-87
2020/12/02 02:54:01;;;;;;;640.17;64.17;;;;;;;1.47;100.00;96124.22;5122068;28;20440;-87
2020/12/02 02:56:27;;;;;;;587.13;56.50;;;;;;;1.55;100.00;96127.13;5122032;28;20449;-86
2020/12/02 03:02:16;;;;;;;719.10;76.97;;;;;;;1.43;100.00;96131.00;5122149;28;20401;-87
2020/12/02 03:04:43;;;;;;;132.37;24.07;;;;;;;1.48;100.00;96144.28;5122076;28;20425;-89
2020/12/02 03:07:14;;;;;;;737.77;82.23;;;;;;;1.37;100.00;96136.31;5117819;28;20461;-84
2020/12/02 03:09:41;;;;;;;327.83;42.93;;;;;;;1.34;100.00;96134.63;5097994;28;20472;-84
2020/12/02 03:12:07;;;;;;;161.00;30.33;;;;;;;1.50;100.00;96138.50;5098154;28;20436;-84
2020/12/02 03:14:34;;;;;;;286.50;38.47;;;;;;;1.53;100.00;96126.88;5097549;28;20798;-84
2020/12/02 03:17:01;;;;;;;45.70;17.80;;;;;;;1.58;100.00;96129.53;5098334;28;20467;-84
2020/12/02 03:19:32;;;;;;;187.67;32.33;;;;;;;1.52;100.00;96131.47;5098284;28;20445;-84
2020/12/02 03:22:09;;;;;;;67.60;21.30;;;;;;;1.57;100.00;96132.66;5096842;28;20900;-86
2020/12/02 03:24:37;;;;;;;49.77;20.00;;;;;;;1.61;100.00;96128.56;5076959;28;20421;-86
2020/12/02 03:27:03;;;;;;;86.33;22.03;;;;;;;1.58;100.00;96118.16;5076869;28;20667;-86
2020/12/02 03:29:29;;;;;;;35.63;16.80;;;;;;;1.57;100.00;96124.69;5077210;28;20552;-86
2020/12/02 03:31:56;;;;;;;34.30;17.83;;;;;;;1.53;100.00;96127.63;5077628;28;20434;-86
2020/12/02 03:34:22;;;;;;;43.23;21.00;;;;;;;1.48;100.00;96132.91;5078648;28;20828;-86
2020/12/02 03:36:50;;;;;;;84.83;23.27;;;;;;;1.46;100.00;96132.69;5076716;28;20457;-86
2020/12/02 03:39:18;;;;;;;37.40;19.33;;;;;;;1.50;100.00;96128.56;5076944;28;20438;-87
2020/12/02 03:41:44;;;;;;;33.60;18.23;;;;;;;1.47;100.00;96129.53;5076903;28;20448;-87
2020/12/02 03:44:11;;;;;;;40.30;20.03;;;;;;;1.48;100.00;96127.59;5077134;28;20453;-87
2020/12/02 03:46:38;;;;;;;35.37;18.57;;;;;;;1.43;100.00;96131.00;5077142;28;20499;-86
2020/12/02 03:49:05;;;;;;;29.80;17.93;;;;;;;1.51;100.00;96129.28;5076463;28;20446;-86
2020/12/02 03:51:32;;;;;;;38.00;20.37;;;;;;;1.49;100.00;96127.13;5077264;28;20868;-86
2020/12/02 03:54:00;;;;;;;38.10;19.70;;;;;;;1.52;100.00;96128.81;5076640;28;20430;-86
2020/12/02 03:56:27;;;;;;;37.90;19.77;;;;;;;1.56;100.00;96123.97;5076324;28;20464;-86
2020/12/02 03:58:54;;;;;;;39.47;20.63;;;;;;;1.57;100.00;96130.00;5077099;28;20457;-86
2020/12/02 04:01:22;;;;;;;43.93;21.30;;;;;;;1.54;100.00;96121.06;5076345;28;20505;-87
2020/12/02 04:03:48;;;;;;;39.90;20.10;;;;;;;1.53;100.00;96130.28;5076608;28;20408;-86
2020/12/02 04:06:16;;;;;;;32.10;18.07;;;;;;;1.63;100.00;96122.75;5076021;28;20488;-86
2020/12/02 04:08:43;;;;;;;33.00;19.70;;;;;;;1.69;100.00;96128.78;5075633;28;20525;-86
2020/12/02 04:11:12;;;;;;;33.97;20.20;;;;;;;1.66;100.00;96119.09;5076495;28;20488;-86
2020/12/02 04:13:38;;;;;;;36.93;18.10;;;;;;;1.68;100.00;96122.03;5076053;28;20930;-86
2020/12/02 04:16:05;;;;;;;35.50;18.30;;;;;;;1.73;100.00;96123.94;5076518;28;20453;-88
2020/12/02 04:18:32;;;;;;;32.30;18.03;;;;;;;1.82;100.00;96121.00;5076403;28;20476;-88
2020/12/02 04:20:58;;;;;;;38.73;19.47;;;;;;;1.81;100.00;96121.50;5076323;28;20441;-87
2020/12/02 04:23:25;;;;;;;32.73;18.10;;;;;;;1.64;100.00;96116.22;5076710;28;20940;-87
2020/12/02 04:25:52;;;;;;;37.77;18.83;;;;;;;1.65;100.00;96124.94;5076599;28;20454;-87
2020/12/02 04:28:20;;;;;;;29.77;17.70;;;;;;;1.61;100.00;96107.28;5076451;28;20437;-86
2020/12/02 04:30:47;;;;;;;32.83;18.80;;;;;;;1.68;100.00;96115.97;5076661;28;20492;-87
2020/12/02 04:33:14;;;;;;;35.10;17.50;;;;;;;1.66;100.00;96111.13;5076452;28;20433;-85
2020/12/02 04:35:41;;;;;;;30.70;16.23;;;;;;;1.73;100.00;96113.31;5075898;28;20480;-84
2020/12/02 04:38:08;;;;;;;30.33;16.87;;;;;;;1.78;100.00;96117.16;5075511;28;20429;-84
2020/12/02 04:40:40;;;;;;;33.80;18.20;;;;;;;1.72;100.00;96113.81;5076121;28;20436;-87
2020/12/02 04:43:16;;;;;;;30.00;17.07;;;;;;;1.65;100.00;96108.97;5076467;28;20441;-87
2020/12/02 04:45:44;;;;;;;34.40;18.10;;;;;;;1.70;100.00;96108.97;5078574;28;20480;-84
2020/12/02 04:48:13;;;;;;;35.90;18.20;;;;;;;1.83;100.00;96111.09;5076216;28;20437;-84
2020/12/02 04:50:40;;;;;;;27.50;16.30;;;;;;;1.79;100.00;96105.31;5075133;28;20480;-84
2020/12/02 04:53:11;;;;;;;33.37;17.17;;;;;;;1.71;100.00;96099.78;5075018;28;20831;-84
2020/12/02 04:55:39;;;;;;;26.57;15.87;;;;;;;1.75;100.00;96108.25;5075600;28;20417;-85
2020/12/02 04:58:15;;;;;;;31.37;15.70;;;;;;;1.74;100.00;96095.41;5075725;28;20441;-84
2020/12/02 05:00:41;;;;;;;30.73;15.50;;;;;;;1.73;100.00;96107.97;5075278;28;21003;-84
2020/12/02 05:03:11;;;;;;;34.83;18.10;;;;;;;1.74;100.00;96106.78;5075184;28;20777;-85
2020/12/02 05:05:37;;;;;;;27.77;15.30;;;;;;;1.82;100.00;96113.03;5075162;28;20441;-86
2020/12/02 05:08:18;;;;;;;29.27;16.67;;;;;;;1.80;100.00;96109.41;5075886;28;20803;-86
2020/12/02 05:10:45;;;;;;;26.30;15.47;;;;;;;1.82;100.00;96107.72;5075742;28;20812;-85
2020/12/02 05:13:12;;;;;;;30.17;16.70;;;;;;;1.79;100.00;96107.97;5075915;28;20444;-86
2020/12/02 05:15:38;;;;;;;23.67;14.80;;;;;;;1.75;100.00;96110.16;5075872;28;20442;-85
2020/12/02 05:18:22;;;;;;;26.07;15.50;;;;;;;1.77;100.00;96121.03;5076799;28;20874;-87
2020/12/02 05:21:04;;;;;;;28.80;15.73;;;;;;;1.77;100.00;96113.78;5074937;28;20955;-86
2020/12/02 05:23:32;;;;;;;29.67;15.07;;;;;;;1.61;100.00;96125.91;5075317;28;20444;-86
2020/12/02 05:25:59;;;;;;;28.60;15.03;;;;;;;1.64;100.00;96124.19;5074834;28;20523;-87
2020/12/02 05:28:28;;;;;;;28.40;16.57;;;;;;;1.66;100.00;96123.72;5075978;28;20424;-87
2020/12/02 05:31:02;;;;;;;34.60;16.07;;;;;;;1.56;100.00;96118.66;5076855;28;20484;-88
2020/12/02 05:33:32;;;;;;;32.90;15.60;;;;;;;1.50;100.00;96123.25;5077357;28;20611;-84
2020/12/02 05:36:00;;;;;;;28.77;15.87;;;;;;;1.44;100.00;96122.53;5075431;28;20540;-86
2020/12/02 05:38:32;;;;;;;34.00;16.23;;;;;;;1.48;100.00;96125.66;5074523;28;20433;-86
2020/12/02 05:40:59;;;;;;;34.87;16.80;;;;;;;1.44;100.00;96121.81;5074991;28;20418;-89
2020/12/02 05:43:33;;;;;;;37.30;16.63;;;;;;;1.40;100.00;96127.38;5074676;28;20528;-86
2020/12/02 05:46:00;;;;;;;37.23;18.40;;;;;;;1.43;100.00;96126.41;5074578;28;20532;-85
2020/12/02 05:48:32;;;;;;;35.27;18.10;;;;;;;1.30;100.00;96123.50;5075163;28;20528;-85
2020/12/02 05:50:59;;;;;;;39.30;19.10;;;;;;;1.35;100.00;96122.78;5075444;28;20474;-86
2020/12/02 05:53:31;;;;;;;36.23;16.13;;;;;;;1.35;100.00;96125.44;5075220;28;20881;-86
2020/12/02 05:55:57;;;;;;;40.73;19.30;;;;;;;1.22;100.00;96122.56;5075407;28;20444;-84
2020/12/02 05:58:27;;;;;;;37.37;17.50;;;;;;;1.26;100.00;96120.38;5075486;28;20445;-84
2020/12/02 06:00:53;;;;;;;38.40;16.90;;;;;;;1.24;100.00;96109.50;5074708;28;20445;-87
2020/12/02 06:03:23;;;;;;;33.00;15.63;;;;;;;1.11;100.00;96114.56;5074996;28;20446;-87
2020/12/02 06:05:50;;;;;;;36.83;18.13;;;;;;;1.08;100.00;96118.91;5079009;28;20476;-86
2020/12/02 06:08:33;;;;;;;37.10;17.90;;;;;;;1.12;100.00;96115.28;5089287;28;20465;-87
2020/12/02 06:11:28;;;;;;;34.73;17.57;;;;;;;1.03;100.00;96122.28;5102528;28;20441;-87
2020/12/02 06:13:56;;;;;;;44.87;18.70;;;;;;;1.15;100.00;96119.66;5101559;28;20432;-84
2020/12/02 06:16:44;;;;;;;36.20;16.23;;;;;;;1.21;100.00;96110.47;5082520;28;20960;-87
2020/12/02 06:19:21;;;;;;;33.90;16.03;;;;;;;1.20;100.00;96114.31;5075881;28;20448;-83
2020/12/02 06:21:52;;;;;;;36.43;16.93;;;;;;;1.11;100.00;96117.22;5078952;28;20959;-84
2020/12/02 06:24:34;;;;;;;39.63;17.43;;;;;;;1.08;100.00;96121.56;5079312;28;20442;-86
2020/12/02 06:27:02;;;;;;;33.70;15.93;;;;;;;1.17;100.00;96111.91;5077845;28;21094;-87
2020/12/02 06:29:31;;;;;;;29.90;15.10;;;;;;;1.17;100.00;96117.94;5079561;28;20439;-87
2020/12/02 06:32:04;;;;;;;37.97;16.20;;;;;;;1.11;100.00;96116.50;5079130;28;20501;-86
2020/12/02 06:34:31;;;;;;;37.07;16.13;;;;;;;1.14;100.00;96118.19;5080090;28;20429;-86
2020/12/02 06:37:14;;;;;;;30.80;15.30;;;;;;;1.11;100.00;96111.91;5081173;28;20469;-85
2020/12/02 06:39:42;;;;;;;31.00;15.13;;;;;;;1.06;100.00;96118.69;5088245;28;20448;-86
2020/12/02 06:42:28;;;;;;;33.73;14.90;;;;;;;1.06;100.00;96115.31;5101073;28;20425;-87
2020/12/02 06:45:39;;;;;;;35.93;16.80;;;;;;;1.16;100.00;96118.44;5100382;28;20418;-87
2020/12/02 06:48:14;;;;;;;35.27;17.40;;;;;;;1.07;100.00;96106.09;5098195;28;20445;-87
2020/12/02 06:50:41;;;;;;;34.70;16.03;;;;;;;1.11;100.00;96109.25;5080242;28;20473;-88
2020/12/02 06:53:12;;;;;;;44.97;15.63;;;;;;;1.04;100.00;96107.81;5081497;28;20447;-87
2020/12/02 06:55:38;;;;;;;32.30;16.90;;;;;;;1.05;100.00;96109.25;5080305;28;20421;-87
2020/12/02 06:58:12;;;;;;;33.57;16.73;;;;;;;1.03;100.00;96116.97;5080805;28;20438;-88
2020/12/02 07:00:42;;;;;;;32.07;15.50;;;;;;;1.05;100.00;96116.50;5080913;28;20445;-87
2020/12/02 07:03:25;;;;;;;35.37;15.40;;;;;;;1.04;100.00;96110.47;5080299;28;20544;-87
2020/12/02 07:06:04;;;;;;;36.70;18.37;;;;;;;1.05;100.00;96119.88;5079598;28;20497;-86
2020/12/02 07:08:35;;;;;;;33.10;16.20;;;;;;;0.96;100.00;96106.84;5079544;28;20459;-87
2020/12/02 07:11:09;;;;;;;34.20;16.17;;;;;;;1.09;100.00;96114.34;5079614;28;20465;-86
2020/12/02 07:13:38;;;;;;;33.47;17.40;;;;;;;1.17;100.00;96114.56;5079457;28;20951;-87
2020/12/02 07:16:20;;;;;;;41.40;17.23;;;;;;;1.08;100.00;96116.25;5078316;28;20450;-87
2020/12/02 07:18:48;;;;;;;30.40;17.13;;;;;;;1.04;100.00;96126.41;5080546;28;20437;-88
2020/12/02 07:21:25;;;;;;;37.67;16.30;;;;;;;0.92;100.00;96116.97;5080837;28;20524;-89
2020/12/02 07:23:53;;;;;;;33.37;15.80;;;;;;;1.03;100.00;96122.28;5081196;28;20424;-86
2020/12/02 07:26:21;;;;;;;32.53;15.53;;;;;;;0.94;100.00;96119.84;5083205;28;20509;-89
2020/12/02 07:28:55;;;;;;;33.30;15.57;;;;;;;0.88;100.00;96121.78;5083099;28;20955;-90
2020/12/02 07:31:24;;;;;;;31.73;16.40;;;;;;;0.98;100.00;96120.34;5082034;28;20491;-89
2020/12/02 07:34:00;;;;;;;35.00;17.13;;;;;;;1.05;100.00;96122.53;5080029;28;20437;-89
2020/12/02 07:36:29;;;;;;;40.53;17.87;;;;;;;1.01;100.00;96124.69;5079006;28;20454;-88
2020/12/02 07:39:02;;;;;;;40.53;18.43;;;;;;;1.00;100.00;96117.22;5079918;28;20430;-86
2020/12/02 07:41:28;;;;;;;36.20;17.00;;;;;;;0.99;100.00;96123.75;5079029;28;20414;-88
2020/12/02 07:43:55;;;;;;;35.40;16.63;;;;;;;1.04;100.00;96118.44;5080372;28;20814;-88
2020/12/02 07:46:23;;;;;;;41.67;18.57;;;;;;;1.17;100.00;96115.28;5080597;28;20460;-89
2020/12/02 07:48:53;;;;;;;34.70;17.03;;;;;;;1.10;100.00;96115.06;5079829;28;20448;-87
2020/12/02 07:51:23;;;;;;;37.07;16.70;;;;;;;1.23;100.00;96121.31;5080376;28;20921;-87
2020/12/02 07:53:55;;;;;;;37.40;17.07;;;;;;;1.14;100.00;96123.50;5079173;28;20571;-87
2020/12/02 07:56:28;;;;;;;38.50;18.70;;;;;;;1.15;100.00;96122.31;5091662;28;20470;-88
2020/12/02 07:58:56;;;;;;;38.70;18.60;;;;;;;1.28;100.00;96114.56;5083228;28;20465;-86
2020/12/02 08:01:42;;;;;;;38.27;17.70;;;;;;;1.15;100.00;96117.72;5084813;28;20441;-87
2020/12/02 08:04:32;;;;;;;34.80;16.67;;;;;;;1.18;100.00;96122.06;5084780;28;20452;-90
2020/12/02 08:07:01;;;;;;;42.33;18.70;;;;;;;1.24;100.00;96130.03;5092501;28;20437;-88
2020/12/02 08:09:29;;;;;;;39.50;18.83;;;;;;;1.21;100.00;96125.69;5099523;28;20422;-90
2020/12/02 08:12:01;;;;;;;33.43;16.93;;;;;;;1.22;100.00;96129.78;5099424;28;20551;-92
2020/12/02 08:14:30;;;;;;;34.23;18.53;;;;;;;1.32;100.00;96130.97;5098944;28;20425;-90
2020/12/02 08:17:04;;;;;;;33.77;16.53;;;;;;;1.29;100.00;96118.66;5094854;28;20533;-89
2020/12/02 08:19:34;;;;;;;37.10;19.47;;;;;;;1.25;100.00;96121.59;5080965;28;20413;-89
2020/12/02 08:22:00;;;;;;;37.03;16.43;;;;;;;1.33;100.00;96127.13;5082172;28;20441;-89
2020/12/02 08:24:40;;;;;;;29.40;17.20;;;;;;;1.23;100.00;96125.91;5081340;28;20438;-88
2020/12/02 08:27:08;;;;;;;39.20;17.60;;;;;;;1.16;100.00;96129.78;5084659;28;20476;-89
2020/12/02 08:29:36;;;;;;;36.70;16.20;;;;;;;1.16;100.00;96126.41;5084151;28;20438;-90
2020/12/02 08:32:09;;;;;;;37.90;15.77;;;;;;;1.16;100.00;96129.78;5085150;28;20545;-90
2020/12/02 08:34:37;;;;;;;33.23;17.60;;;;;;;1.10;100.00;96128.34;5084093;28;20505;-89
2020/12/02 08:37:32;;;;;;;34.07;16.00;;;;;;;1.13;100.00;96124.72;5082006;28;20448;-90
2020/12/02 08:40:28;;;;;;;36.80;16.53;;;;;;;1.20;100.00;96118.91;5082914;28;20849;-91
2020/12/02 08:43:14;;;;;;;30.43;15.90;;;;;;;1.09;100.00;96124.97;5080626;28;20416;-89
2020/12/02 08:45:55;;;;;;;34.90;15.40;;;;;;;1.15;100.00;96133.66;5082258;28;20521;-87
2020/12/02 08:48:22;;;;;;;33.70;17.03;;;;;;;1.27;100.00;96124.47;5081612;28;20426;-86
2020/12/02 08:50:49;;;;;;;31.97;14.50;;;;;;;1.28;100.00;96127.88;5085526;28;20469;-87
2020/12/02 08:53:22;;;;;;;30.57;14.60;;;;;;;1.31;100.00;96140.19;5089366;28;20453;-89
2020/12/02 08:55:49;;;;;;;36.50;15.90;;;;;;;1.20;100.00;96129.53;5080859;28;20467;-87
2020/12/02 08:58:15;;;;;;;33.10;15.57;;;;;;;1.17;100.00;96130.50;5080070;28;20438;-88
2020/12/02 09:00:42;;;;;;;31.93;15.17;;;;;;;1.10;100.00;96120.38;5078939;28;20468;-91
2020/12/02 09:03:08;;;;;;;34.20;15.03;;;;;;;1.09;100.00;96119.66;5079393;28;20885;-91
2020/12/02 09:05:35;;;;;;;30.10;15.40;;;;;;;1.22;100.00;96114.59;5082528;28;20455;-90
2020/12/02 09:08:02;;;;;;;33.50;16.93;;;;;;;1.12;100.00;96112.66;5081048;28;20479;-88
2020/12/02 09:10:29;;;;;;;30.07;14.20;;;;;;;1.10;100.00;96112.41;5082775;28;20484;-91
2020/12/02 09:13:37;;;;;;;32.10;14.73;;;;;;;1.18;100.00;96102.75;5086510;28;20440;-93
2020/12/02 09:31:30;;;;;;;20.30;11.40;;;;;;;1.32;100.00;96102.47;5036963;28;20561;-88
2020/12/02 09:33:57;;;;;;;23.67;12.57;;;;;;;1.46;100.00;96100.78;5039996;28;20454;-87
2020/12/02 09:36:25;;;;;;;22.63;11.77;;;;;;;1.37;100.00;96093.06;5040262;28;20460;-90
2020/12/02 09:38:53;;;;;;;21.90;12.03;;;;;;;1.60;100.00;96084.56;5043346;28;20440;-89
2020/12/02 09:41:33;;;;;;;21.97;11.20;;;;;;;1.41;99.23;96091.59;5040109;28;20498;-88
2020/12/02 09:44:35;;;;;;;21.60;10.93;;;;;;;1.43;99.55;96083.16;5040825;28;20415;-88
2020/12/02 09:47:07;;;;;;;22.40;10.83;;;;;;;1.60;99.67;96081.91;5037124;28;20478;-88
2020/12/02 09:49:36;;;;;;;22.20;12.30;;;;;;;1.54;99.19;96075.16;5049929;28;20416;-88
2020/12/02 09:52:38;;;;;;;22.93;11.07;;;;;;;1.50;98.13;96072.72;5057756;28;20464;-90
2020/12/02 09:55:11;;;;;;;21.67;10.70;;;;;;;1.68;97.36;96076.81;5036664;28;20499;-90
2020/12/02 09:57:38;;;;;;;15.60;9.17;;;;;;;1.85;95.53;96080.16;5057440;28;20519;-90
2020/12/02 10:00:06;;;;;;;14.70;8.57;;;;;;;1.98;95.06;96083.00;5044640;28;20522;-88
2020/12/02 10:02:47;;;;;;;18.37;9.73;;;;;;;1.91;95.11;96066.84;5041788;28;20973;-88
2020/12/02 10:05:52;;;;;;;23.27;9.80;;;;;;;2.03;95.47;96063.66;5042608;28;20411;-90
2020/12/02 10:08:33;;;;;;;21.17;11.33;;;;;;;2.04;94.30;96067.75;5033756;28;20431;-89
2020/12/02 10:11:04;;;;;;;22.90;11.50;;;;;;;1.88;94.62;96063.22;5039584;28;20455;-89
2020/12/02 10:13:59;;;;;;;25.37;12.00;;;;;;;1.77;95.17;96055.28;5041483;28;20434;-89
2020/12/02 10:16:31;;;;;;;23.50;11.87;;;;;;;1.63;94.93;96051.69;5018658;28;20555;-87
2020/12/02 10:19:20;;;;;;;24.03;11.77;;;;;;;1.77;95.31;96049.22;5040261;28;20434;-88
2020/12/02 10:22:16;;;;;;;20.47;10.87;;;;;;;1.74;96.15;96040.31;5030067;28;20445;-88
2020/12/02 10:25:03;;;;;;;27.80;13.80;;;;;;;1.94;96.80;96036.59;5036015;28;20455;-86
2020/12/02 10:27:54;;;;;;;29.67;14.27;;;;;;;1.75;98.31;96038.38;5039041;28;20478;-87
2020/12/02 10:30:23;;;;;;;28.17;14.13;;;;;;;1.67;99.20;96032.09;5039551;28;20518;-90
2020/12/02 10:32:59;;;;;;;35.77;15.77;;;;;;;1.70;99.61;96034.50;5041352;28;20439;-88
2020/12/02 10:35:28;;;;;;;41.03;18.03;;;;;;;1.59;99.62;96013.28;5043273;28;20429;-88
2020/12/02 10:37:59;;;;;;;39.60;17.73;;;;;;;1.57;100.00;96015.69;5045137;28;20420;-88
2020/12/02 10:40:35;;;;;;;40.93;17.90;;;;;;;1.52;100.00;96013.78;5057380;28;20450;-87
2020/12/02 10:43:06;;;;;;;36.77;17.70;;;;;;;1.58;100.00;96004.59;5041680;28;20451;-90
2020/12/02 10:45:32;;;;;;;41.77;18.93;;;;;;;1.57;100.00;96003.13;5039839;28;20514;-88
2020/12/02 10:48:34;;;;;;;43.87;19.63;;;;;;;1.50;100.00;95998.31;5042339;28;20845;-89
2020/12/02 10:51:02;;;;;;;44.50;19.83;;;;;;;1.50;100.00;95994.94;5041408;28;20478;-89
2020/12/02 10:53:28;;;;;;;45.93;19.30;;;;;;;1.49;100.00;95991.56;5043865;28;20432;-90
2020/12/02 10:55:55;;;;;;;41.77;18.93;;;;;;;1.73;100.00;95984.94;5043546;28;20461;-88
2020/12/02 10:58:24;;;;;;;47.27;20.43;;;;;;;1.56;99.13;95985.75;5042227;28;20439;-88
2020/12/02 11:00:54;;;;;;;39.17;18.37;;;;;;;1.53;99.85;95978.03;5046405;28;20444;-88
2020/12/02 11:03:26;;;;;;;36.73;18.17;;;;;;;1.38;100.00;95969.63;5043233;28;20436;-89
2020/12/02 11:06:14;;;;;;;39.10;17.90;;;;;;;1.37;100.00;95974.22;5047115;28;20459;-88
2020/12/02 11:08:58;;;;;;;42.30;19.60;;;;;;;1.49;100.00;95974.88;5043874;28;20475;-87
2020/12/02 11:11:40;;;;;;;43.10;20.57;;;;;;;1.44;100.00;95970.31;5045756;28;20855;-87
2020/12/02 11:14:21;;;;;;;36.37;18.97;;;;;;;1.47;100.00;95962.06;5051904;28;20638;-88
2020/12/02 11:16:58;;;;;;;47.60;19.70;;;;;;;1.43;100.00;95953.66;5055461;28;20463;-87
2020/12/02 11:19:37;;;;;;;41.97;18.43;;;;;;;1.37;100.00;95958.25;5046687;28;20884;-88
2020/12/02 11:22:22;;;;;;;45.30;18.47;;;;;;;1.53;100.00;95954.81;5041998;28;20431;-88
2020/12/02 11:24:59;;;;;;;38.97;17.70;;;;;;;1.40;99.57;95946.66;5046480;28;20439;-89
2020/12/02 11:27:26;;;;;;;43.17;19.23;;;;;;;1.46;99.74;95949.28;5043862;28;20483;-88
2020/12/02 11:29:52;;;;;;;45.57;20.20;;;;;;;1.45;99.49;95953.88;5041969;28;20461;-88
2020/12/02 11:32:58;;;;;;;49.87;20.70;;;;;;;1.40;100.00;95954.63;5041380;28;20844;-89
2020/12/02 11:36:00;;;;;;;43.33;18.50;;;;;;;1.38;100.00;95949.06;5044582;28;20503;-87
2020/12/02 11:38:33;;;;;;;39.23;18.83;;;;;;;1.43;100.00;95947.59;5046302;28;20410;-87
2020/12/02 11:41:07;;;;;;;41.70;18.33;;;;;;;1.42;99.97;95943.50;5046228;28;20394;-87
2020/12/02 11:43:40;;;;;;;38.83;19.07;;;;;;;1.33;100.00;95943.78;5043040;28;20796;-87
2020/12/02 11:46:09;;;;;;;35.43;17.20;;;;;;;1.40;100.00;95941.34;5043824;28;20463;-87
2020/12/02 11:48:41;;;;;;;39.20;17.00;;;;;;;1.38;99.72;95943.75;5041304;28;20443;-87
2020/12/02 11:51:19;;;;;;;43.97;18.20;;;;;;;1.40;99.40;95929.97;5039810;28;20474;-87
2020/12/02 11:53:54;;;;;;;36.73;18.03;;;;;;;1.32;99.83;95929.03;5040387;28;20546;-87
2020/12/02 11:56:25;;;;;;;32.87;16.00;;;;;;;1.24;99.33;95922.78;5040506;28;20859;-87